createdAt,value
2017-12-27T00:12:58.891Z,61.20
2017-12-27T00:29:02.314Z,61.20
2017-12-27T00:31:30.828Z,61.20
2017-12-27T00:33:59.077Z,61.40
2017-12-27T00:36:27.253Z,61.40
2017-12-27T00:38:55.401Z,61.50
2017-12-27T00:41:23.656Z,61.40
2017-12-27T00:43:51.855Z,61.50
2017-12-27T00:46:20.200Z,61.50
2017-12-27T00:48:48.346Z,61.50
2017-12-27T00:51:17.382Z,61.40
2017-12-27T00:53:45.537Z,61.40
2017-12-27T00:56:13.679Z,61.40
2017-12-27T00:58:42.021Z,61.40
2017-12-27T01:01:10.188Z,61.10
2017-12-27T01:03:38.567Z,61.40
2017-12-27T01:06:06.774Z,61.40
2017-12-27T01:08:34.920Z,61.40
2017-12-27T01:11:03.083Z,61.40
2017-12-27T01:13:31.304Z,61.30
2017-12-27T01:16:00.234Z,62.20
2017-12-27T01:18:28.380Z,61.40
2017-12-27T01:20:56.556Z,61.40
2017-12-27T01:23:24.730Z,61.40
2017-12-27T01:25:52.873Z,61.30
2017-12-27T01:28:21.053Z,61.30
2017-12-27T01:30:49.207Z,61.40
2017-12-27T01:33:17.375Z,61.40
2017-12-27T01:35:45.537Z,61.30
2017-12-27T01:38:13.668Z,61.40
2017-12-27T01:40:41.826Z,61.40
2017-12-27T01:43:10.071Z,61.40
2017-12-27T01:45:38.213Z,61.40
2017-12-27T01:48:07.143Z,62.20
2017-12-27T01:50:35.109Z,61.40
2017-12-27T01:53:03.254Z,61.40
2017-12-27T01:55:32.167Z,61.40
2017-12-27T01:58:00.349Z,61.30
2017-12-27T02:00:28.519Z,61.40
2017-12-27T02:02:56.661Z,61.40
2017-12-27T02:05:25.586Z,61.20
2017-12-27T02:07:53.553Z,61.20
2017-12-27T02:10:21.879Z,61.30
2017-12-27T02:12:49.868Z,61.20
2017-12-27T02:15:18.599Z,61.20
2017-12-27T02:17:46.761Z,61.20
2017-12-27T02:20:14.939Z,61.20
2017-12-27T02:22:43.091Z,61.20
2017-12-27T02:25:11.243Z,61.30
2017-12-27T02:27:40.191Z,61.40
2017-12-27T02:30:08.341Z,61.20
2017-12-27T02:32:36.482Z,61.20
2017-12-27T02:35:05.427Z,61.40
2017-12-27T02:37:33.582Z,61.30
2017-12-27T02:53:28.929Z,61.10
2017-12-27T02:55:57.146Z,61.10
2017-12-27T02:58:25.298Z,61.10
2017-12-27T03:00:54.361Z,61.30
2017-12-27T03:03:22.514Z,61.20
2017-12-27T03:05:50.815Z,61.20
2017-12-27T03:08:18.981Z,61.30
2017-12-27T03:10:47.141Z,61.20
2017-12-27T03:13:15.285Z,61.30
2017-12-27T03:15:43.453Z,61.30
2017-12-27T03:18:12.374Z,61.30
2017-12-27T03:20:40.531Z,61.20
2017-12-27T03:23:08.713Z,61.30
2017-12-27T03:25:36.863Z,62.10
2017-12-27T03:28:05.868Z,61.30
2017-12-27T03:30:34.029Z,61.30
2017-12-27T03:33:02.948Z,61.30
2017-12-27T03:35:31.163Z,61.30
2017-12-27T03:37:59.332Z,61.30
2017-12-27T03:40:27.545Z,61.30
2017-12-27T03:42:56.465Z,61.30
2017-12-27T03:45:24.642Z,61.20
2017-12-27T03:47:52.822Z,61.20
2017-12-27T03:50:20.993Z,61.20
2017-12-27T03:52:49.355Z,61.20
2017-12-27T03:55:17.512Z,61.20
2017-12-27T03:57:46.417Z,61.20
2017-12-27T04:00:14.609Z,61.20
2017-12-27T04:02:42.763Z,61.10
2017-12-27T04:05:10.905Z,61.10
2017-12-27T04:07:39.088Z,61.20
2017-12-27T04:10:08.005Z,61.10
2017-12-27T04:12:36.155Z,61.10
2017-12-27T04:15:05.126Z,61.10
2017-12-27T04:17:33.736Z,61.10
2017-12-27T04:20:02.651Z,61.10
2017-12-27T04:22:30.834Z,61.00
2017-12-27T04:24:58.982Z,61.20
2017-12-27T04:27:27.929Z,61.20
2017-12-27T04:29:56.085Z,61.10
2017-12-27T04:32:24.282Z,61.20
2017-12-27T04:34:52.433Z,61.20
2017-12-27T04:37:20.609Z,61.20
2017-12-27T04:39:48.774Z,61.20
2017-12-27T04:42:16.921Z,61.10
2017-12-27T04:44:45.907Z,61.20
2017-12-27T04:47:14.635Z,61.90
2017-12-27T04:49:42.791Z,61.10
2017-12-27T04:52:10.980Z,61.10
2017-12-27T04:54:39.132Z,61.20
2017-12-27T04:57:08.591Z,61.20
2017-12-27T04:59:36.767Z,61.20
2017-12-27T05:02:04.916Z,61.90
2017-12-27T05:04:33.073Z,61.10
2017-12-27T05:07:01.233Z,61.10
2017-12-27T05:09:29.395Z,61.10
2017-12-27T05:11:58.403Z,61.20
2017-12-27T05:14:26.396Z,61.10
2017-12-27T05:16:54.353Z,61.10
2017-12-27T05:19:22.520Z,61.10
2017-12-27T05:21:50.706Z,61.10
2017-12-27T05:24:19.818Z,61.10
2017-12-27T05:26:47.978Z,61.10
2017-12-27T05:29:16.133Z,61.10
2017-12-27T05:31:44.274Z,61.10
2017-12-27T05:34:12.606Z,61.10
2017-12-27T05:36:40.823Z,61.10
2017-12-27T05:39:08.969Z,61.20
2017-12-27T05:41:37.126Z,61.20
2017-12-27T05:44:05.389Z,61.10
2017-12-27T05:46:33.646Z,61.10
2017-12-27T05:49:02.565Z,61.10
2017-12-27T05:51:30.776Z,61.10
2017-12-27T05:53:59.065Z,61.20
2017-12-27T05:56:27.316Z,61.20
2017-12-27T05:58:55.765Z,61.10
2017-12-27T06:01:23.949Z,61.10
2017-12-27T06:03:52.287Z,61.20
2017-12-27T06:06:20.679Z,61.10
2017-12-27T06:08:49.609Z,61.10
2017-12-27T06:11:17.904Z,61.10
2017-12-27T06:13:46.268Z,61.10
2017-12-27T06:16:14.417Z,61.10
2017-12-27T06:18:42.575Z,61.20
2017-12-27T06:21:11.523Z,61.10
2017-12-27T06:23:39.679Z,61.20
2017-12-27T06:26:07.835Z,61.20
2017-12-27T06:28:36.333Z,61.10
2017-12-27T06:31:04.509Z,61.00
2017-12-27T06:33:32.737Z,61.10
2017-12-27T06:36:00.885Z,61.10
2017-12-27T06:38:29.034Z,61.10
2017-12-27T06:40:57.516Z,61.10
2017-12-27T06:43:25.859Z,61.00
2017-12-27T06:45:54.162Z,61.10
2017-12-27T06:48:22.327Z,61.10
2017-12-27T06:50:50.465Z,61.10
2017-12-27T06:53:18.610Z,61.10
2017-12-27T06:55:46.785Z,61.00
2017-12-27T06:58:14.939Z,61.00
2017-12-27T07:00:43.076Z,61.00
2017-12-27T07:03:11.832Z,61.00
2017-12-27T07:05:39.991Z,61.00
2017-12-27T07:08:08.179Z,61.00
2017-12-27T07:10:36.339Z,61.00
2017-12-27T07:13:04.681Z,61.00
2017-12-27T07:15:33.090Z,61.00
2017-12-27T07:18:01.363Z,61.00
2017-12-27T07:20:29.557Z,61.10
2017-12-27T07:22:57.705Z,61.00
2017-12-27T07:25:25.863Z,61.00
2017-12-27T07:27:54.035Z,61.00
2017-12-27T07:30:22.181Z,61.00
2017-12-27T07:32:50.336Z,61.10
2017-12-27T07:35:19.393Z,61.00
2017-12-27T07:37:47.349Z,61.00
2017-12-27T07:40:15.500Z,61.00
2017-12-27T07:42:44.431Z,61.00
2017-12-27T07:45:12.763Z,61.00
2017-12-27T07:47:41.700Z,61.00
2017-12-27T07:50:09.673Z,61.00
2017-12-27T07:52:37.821Z,61.00
2017-12-27T07:55:06.560Z,61.00
2017-12-27T07:57:34.558Z,61.00
2017-12-27T08:00:03.497Z,61.00
2017-12-27T08:02:31.463Z,61.00
2017-12-27T08:04:59.647Z,61.00
2017-12-27T08:07:27.599Z,61.00
2017-12-27T08:09:56.526Z,61.80
2017-12-27T08:12:24.686Z,61.00
2017-12-27T08:14:52.848Z,61.00
2017-12-27T08:17:21.263Z,61.00
2017-12-27T08:19:49.516Z,61.00
2017-12-27T08:22:17.695Z,61.00
2017-12-27T08:24:45.850Z,60.90
2017-12-27T08:27:14.031Z,60.90
2017-12-27T08:29:42.221Z,60.90
2017-12-27T08:32:10.475Z,60.90
2017-12-27T08:34:38.761Z,60.90
2017-12-27T08:37:07.757Z,60.90
2017-12-27T08:39:36.370Z,60.90
2017-12-27T08:42:05.314Z,60.90
2017-12-27T08:44:33.486Z,60.90
2017-12-27T08:47:01.647Z,60.80
2017-12-27T08:49:30.634Z,60.80
2017-12-27T08:51:59.553Z,60.80
2017-12-27T08:54:27.710Z,60.80
2017-12-27T08:56:55.880Z,60.80
2017-12-27T08:59:24.896Z,60.80
2017-12-27T09:01:53.127Z,60.80
2017-12-27T09:04:21.402Z,60.80
2017-12-27T09:06:49.680Z,61.30
2017-12-27T09:09:18.652Z,60.80
2017-12-27T09:11:46.797Z,60.80
2017-12-27T09:14:14.974Z,60.80
2017-12-27T09:16:43.191Z,60.80
2017-12-27T09:19:12.216Z,60.80
2017-12-27T09:21:41.202Z,60.80
2017-12-27T09:24:10.159Z,60.80
2017-12-27T09:26:38.468Z,60.80
2017-12-27T09:29:07.631Z,60.80
2017-12-27T09:31:35.875Z,60.80
2017-12-27T09:34:04.103Z,60.80
2017-12-27T09:36:32.275Z,60.80
2017-12-27T09:39:00.428Z,60.80
2017-12-27T09:41:28.893Z,60.80
2017-12-27T09:43:57.127Z,60.80
2017-12-27T09:46:26.349Z,60.80
2017-12-27T09:48:54.649Z,60.80
2017-12-27T09:51:22.985Z,60.80
2017-12-27T09:53:51.907Z,60.70
2017-12-27T09:56:20.087Z,60.70
2017-12-27T09:58:48.962Z,60.70
2017-12-27T10:01:17.896Z,60.70
2017-12-27T10:03:46.054Z,60.70
2017-12-27T10:06:14.228Z,60.70
2017-12-27T10:08:42.400Z,60.70
2017-12-27T10:11:10.646Z,60.70
2017-12-27T10:13:39.160Z,60.70
2017-12-27T10:16:07.313Z,61.50
2017-12-27T10:18:35.485Z,60.70
2017-12-27T10:21:03.467Z,60.70
2017-12-27T10:23:32.068Z,60.70
2017-12-27T10:26:00.247Z,60.70
2017-12-27T10:28:28.400Z,60.70
2017-12-27T10:30:56.555Z,60.70
2017-12-27T10:33:24.747Z,60.60
2017-12-27T10:35:53.228Z,60.60
2017-12-27T10:38:21.193Z,60.60
2017-12-27T10:40:49.177Z,60.50
2017-12-27T10:43:17.357Z,60.40
2017-12-27T10:45:45.529Z,60.50
2017-12-27T10:48:13.903Z,60.50
2017-12-27T10:50:42.064Z,60.40
2017-12-27T10:53:10.097Z,60.40
2017-12-27T10:55:39.304Z,60.40
2017-12-27T10:58:08.314Z,60.30
2017-12-27T11:00:36.778Z,60.30
2017-12-27T11:03:05.702Z,60.20
2017-12-27T11:05:33.865Z,60.20
2017-12-27T11:08:02.043Z,60.20
2017-12-27T11:10:30.188Z,60.20
2017-12-27T11:12:59.149Z,60.20
2017-12-27T11:15:27.285Z,60.20
2017-12-27T11:17:55.462Z,60.20
2017-12-27T11:20:23.605Z,60.20
2017-12-27T11:22:52.535Z,60.20
2017-12-27T11:25:20.750Z,60.20
2017-12-27T11:27:48.935Z,60.10
2017-12-27T11:30:17.870Z,60.10
2017-12-27T11:32:46.089Z,60.20
2017-12-27T11:35:14.395Z,60.20
2017-12-27T11:37:43.335Z,60.20
2017-12-27T11:40:11.484Z,60.20
2017-12-27T11:42:39.730Z,60.20
2017-12-27T11:45:08.666Z,60.20
2017-12-27T11:47:36.837Z,60.10
2017-12-27T11:50:04.997Z,60.10
2017-12-27T11:52:33.158Z,60.00
2017-12-27T11:55:01.301Z,60.10
2017-12-27T11:57:29.477Z,60.10
2017-12-27T11:59:57.631Z,60.90
2017-12-27T12:02:26.044Z,60.10
2017-12-27T12:04:54.963Z,60.10
2017-12-27T12:07:23.119Z,60.00
2017-12-27T12:09:51.326Z,60.10
2017-12-27T12:12:19.677Z,60.10
2017-12-27T12:14:47.835Z,60.10
2017-12-27T12:17:16.766Z,60.10
2017-12-27T12:19:44.936Z,60.10
2017-12-27T12:22:13.117Z,60.00
2017-12-27T12:24:41.355Z,60.00
2017-12-27T12:27:10.483Z,60.00
2017-12-27T12:29:38.621Z,59.90
2017-12-27T12:32:07.562Z,59.90
2017-12-27T12:34:35.764Z,59.90
2017-12-27T12:37:03.940Z,59.90
2017-12-27T12:39:32.089Z,59.90
2017-12-27T12:42:00.255Z,59.80
2017-12-27T12:44:28.412Z,59.80
2017-12-27T12:46:56.591Z,59.80
2017-12-27T12:49:24.751Z,59.80
2017-12-27T12:51:53.402Z,59.80
2017-12-27T12:54:21.576Z,59.80
2017-12-27T12:56:49.746Z,59.80
2017-12-27T12:59:17.927Z,59.80
2017-12-27T13:01:46.083Z,59.80
2017-12-27T13:04:14.317Z,59.80
2017-12-27T13:06:42.563Z,59.80
2017-12-27T13:09:10.697Z,59.80
2017-12-27T13:11:38.950Z,59.80
2017-12-27T13:14:07.023Z,59.80
2017-12-27T13:16:35.203Z,59.80
2017-12-27T13:19:03.338Z,59.80
2017-12-27T13:21:32.085Z,59.80
2017-12-27T13:24:00.065Z,60.50
2017-12-27T13:26:28.457Z,59.80
2017-12-27T13:28:56.436Z,59.80
2017-12-27T13:31:25.602Z,59.90
2017-12-27T13:33:53.815Z,59.80
2017-12-27T13:36:22.153Z,59.80
2017-12-27T13:38:50.329Z,59.80
2017-12-27T13:41:18.709Z,59.80
2017-12-27T13:43:46.816Z,59.80
2017-12-27T13:46:15.766Z,59.80
2017-12-27T13:48:43.924Z,59.80
2017-12-27T13:51:12.364Z,59.80
2017-12-27T13:53:41.659Z,59.80
2017-12-27T13:56:10.566Z,60.50
2017-12-27T13:58:39.633Z,59.80
2017-12-27T14:01:08.257Z,59.80
2017-12-27T14:03:36.412Z,59.80
2017-12-27T14:06:05.335Z,59.80
2017-12-27T14:08:33.494Z,59.80
2017-12-27T14:11:01.652Z,59.80
2017-12-27T14:13:31.167Z,59.80
2017-12-27T14:16:00.090Z,59.80
2017-12-27T14:18:28.257Z,59.80
2017-12-27T14:20:56.412Z,59.90
2017-12-27T14:23:32.842Z,59.90
2017-12-27T14:26:08.175Z,59.90
2017-12-27T14:28:36.493Z,59.90
2017-12-27T14:31:05.411Z,60.00
2017-12-27T14:33:33.568Z,59.90
2017-12-27T14:36:01.743Z,60.00
2017-12-27T14:38:29.890Z,60.00
2017-12-27T14:40:58.085Z,60.00
2017-12-27T14:43:26.264Z,59.90
2017-12-27T14:45:54.415Z,60.00
2017-12-27T14:48:23.352Z,60.00
2017-12-27T14:50:51.706Z,59.90
2017-12-27T14:53:20.027Z,59.90
2017-12-27T14:55:48.444Z,59.90
2017-12-27T14:58:17.721Z,60.00
2017-12-27T15:00:45.947Z,60.00
2017-12-27T15:03:14.575Z,60.00
2017-12-27T15:05:42.862Z,60.00
2017-12-27T15:08:11.160Z,60.00
2017-12-27T15:10:40.100Z,60.00
2017-12-27T15:13:08.282Z,60.00
2017-12-27T15:15:36.617Z,60.00
2017-12-27T15:18:05.547Z,60.10
2017-12-27T15:20:33.713Z,60.00
2017-12-27T15:23:01.881Z,60.00
2017-12-27T15:25:30.163Z,60.00
2017-12-27T15:27:58.344Z,60.00
2017-12-27T15:30:26.302Z,60.10
2017-12-27T15:32:54.868Z,60.10
2017-12-27T15:35:23.894Z,60.10
2017-12-27T15:37:52.053Z,60.10
2017-12-27T15:40:20.193Z,60.10
2017-12-27T15:42:49.143Z,60.20
2017-12-27T15:45:17.345Z,60.10
2017-12-27T15:47:45.321Z,60.10
2017-12-27T15:50:13.495Z,60.10
2017-12-27T15:52:41.823Z,60.10
2017-12-27T15:55:09.997Z,60.20
2017-12-27T15:57:38.159Z,60.20
2017-12-27T16:00:06.297Z,60.10
2017-12-27T16:02:35.977Z,60.20
2017-12-27T16:05:04.026Z,60.10
2017-12-27T16:07:32.191Z,60.20
2017-12-27T16:10:00.370Z,60.20
2017-12-27T16:12:28.646Z,60.10
2017-12-27T16:14:56.972Z,60.20
2017-12-27T16:17:25.113Z,60.10
2017-12-27T16:19:53.294Z,60.20
2017-12-27T16:22:22.156Z,60.20
2017-12-27T16:24:50.307Z,60.10
2017-12-27T16:27:19.387Z,60.20
2017-12-27T16:29:48.815Z,60.20
2017-12-27T16:32:16.991Z,60.40
2017-12-27T16:34:45.917Z,60.20
2017-12-27T16:37:14.057Z,60.20
2017-12-27T16:39:42.453Z,60.30
2017-12-27T16:42:10.609Z,60.20
2017-12-27T16:44:38.787Z,60.20
2017-12-27T16:47:06.957Z,60.30
2017-12-27T16:49:35.315Z,60.20
2017-12-27T16:52:04.250Z,60.30
2017-12-27T16:54:32.969Z,60.20
2017-12-27T16:57:01.134Z,60.20
2017-12-27T16:59:29.309Z,60.20
2017-12-27T17:01:57.524Z,60.30
2017-12-27T17:04:26.705Z,60.30
2017-12-27T17:06:55.295Z,60.30
2017-12-27T17:09:23.437Z,60.30
2017-12-27T17:11:51.658Z,60.30
2017-12-27T17:14:20.170Z,60.30
2017-12-27T17:16:48.421Z,60.30
2017-12-27T17:19:17.383Z,60.30
2017-12-27T17:21:45.761Z,60.30
2017-12-27T17:24:13.926Z,60.30
2017-12-27T17:26:42.115Z,60.30
2017-12-27T17:29:10.269Z,60.30
2017-12-27T17:31:38.244Z,60.30
2017-12-27T17:34:06.413Z,60.30
2017-12-27T17:36:34.582Z,60.30
2017-12-27T17:39:02.678Z,60.30
2017-12-27T17:41:31.675Z,60.30
2017-12-27T17:43:59.630Z,60.30
2017-12-27T17:46:27.857Z,60.30
2017-12-27T17:48:57.473Z,60.30
2017-12-27T17:51:25.434Z,60.30
2017-12-27T17:53:53.605Z,60.30
2017-12-27T17:56:25.098Z,61.10
2017-12-27T17:58:53.287Z,60.20
2017-12-27T18:01:21.442Z,60.30
2017-12-27T18:03:49.808Z,60.40
2017-12-27T18:06:17.949Z,60.40
2017-12-27T18:08:46.907Z,60.40
2017-12-27T18:11:15.477Z,60.30
2017-12-27T18:13:43.739Z,60.30
2017-12-27T18:16:11.882Z,60.40
2017-12-27T18:18:40.181Z,60.30
2017-12-27T18:21:08.497Z,60.40
2017-12-27T18:23:36.662Z,60.40
2017-12-27T18:26:04.830Z,60.30
2017-12-27T18:28:32.994Z,60.30
2017-12-27T18:31:01.157Z,60.40
2017-12-27T18:33:29.345Z,60.40
2017-12-27T18:35:57.502Z,60.30
2017-12-27T18:38:25.660Z,60.30
2017-12-27T18:40:53.960Z,60.30
2017-12-27T18:43:24.178Z,60.30
2017-12-27T18:45:52.331Z,60.40
2017-12-27T18:48:20.509Z,60.40
2017-12-27T18:50:48.474Z,60.30
2017-12-27T18:53:16.775Z,60.30
2017-12-27T18:55:44.953Z,60.30
2017-12-27T18:58:12.913Z,60.30
2017-12-27T19:00:41.205Z,60.30
2017-12-27T19:03:09.292Z,60.30
2017-12-27T19:05:37.581Z,60.40
2017-12-27T19:08:05.538Z,60.40
2017-12-27T19:10:33.531Z,60.40
2017-12-27T19:13:01.797Z,60.30
2017-12-27T19:15:30.006Z,60.40
2017-12-27T19:17:58.937Z,60.30
2017-12-27T19:20:27.097Z,60.30
2017-12-27T19:22:55.074Z,60.30
2017-12-27T19:25:23.241Z,60.40
2017-12-27T19:27:51.414Z,60.40
2017-12-27T19:30:19.564Z,60.40
2017-12-27T19:32:48.512Z,60.40
2017-12-27T19:35:16.690Z,60.40
2017-12-27T19:37:45.003Z,60.50
2017-12-27T19:40:13.955Z,60.40
2017-12-27T19:42:42.149Z,60.40
2017-12-27T19:45:10.323Z,60.40
2017-12-27T19:47:38.715Z,60.40
2017-12-27T19:50:07.621Z,60.40
2017-12-27T19:52:36.545Z,60.40
2017-12-27T19:55:04.457Z,60.40
2017-12-27T19:57:32.659Z,60.60
2017-12-27T20:00:00.967Z,60.40
2017-12-27T20:02:29.377Z,60.50
2017-12-27T20:04:59.230Z,60.50
2017-12-27T20:07:28.162Z,60.40
2017-12-27T20:09:56.326Z,60.40
2017-12-27T20:12:24.564Z,60.40
2017-12-27T20:14:53.491Z,60.50
2017-12-27T20:17:21.630Z,60.50
2017-12-27T20:19:50.564Z,60.50
2017-12-27T20:22:19.052Z,60.40
2017-12-27T20:24:47.205Z,60.50
2017-12-27T20:27:15.435Z,60.50
2017-12-27T20:29:43.607Z,60.50
2017-12-27T20:32:11.753Z,60.50
2017-12-27T20:34:39.919Z,60.50
2017-12-27T20:37:08.118Z,60.50
2017-12-27T20:39:36.406Z,60.50
2017-12-27T20:42:04.568Z,60.40
2017-12-27T20:44:32.764Z,60.50
2017-12-27T20:47:01.750Z,60.60
2017-12-27T20:49:29.908Z,60.40
2017-12-27T20:51:58.074Z,60.40
2017-12-27T20:54:26.043Z,60.40
2017-12-27T20:56:54.201Z,60.40
2017-12-27T20:59:22.366Z,60.40
2017-12-27T21:01:50.505Z,60.40
2017-12-27T21:04:19.596Z,60.50
2017-12-27T21:06:48.643Z,60.50
2017-12-27T21:09:16.806Z,60.50
2017-12-27T21:11:44.959Z,60.50
2017-12-27T21:14:13.151Z,60.50
2017-12-27T21:16:41.292Z,60.50
2017-12-27T21:19:10.275Z,60.60
2017-12-27T21:21:39.218Z,60.50
2017-12-27T21:24:07.364Z,61.20
2017-12-27T21:26:35.531Z,60.50
2017-12-27T21:29:04.546Z,60.60
2017-12-27T21:31:32.741Z,61.30
2017-12-27T21:34:00.899Z,60.60
2017-12-27T21:36:29.057Z,60.60
2017-12-27T21:38:57.244Z,60.60
2017-12-27T21:41:26.161Z,60.60
2017-12-27T21:43:54.347Z,60.60
2017-12-27T21:46:22.493Z,60.60
2017-12-27T21:48:56.289Z,60.80
2017-12-27T21:51:24.630Z,61.50
2017-12-27T21:53:53.689Z,61.60
2017-12-27T21:56:22.028Z,61.50
2017-12-27T22:01:50.039Z,61.20
2017-12-27T22:04:18.218Z,61.30
2017-12-27T22:06:46.519Z,61.30
2017-12-27T22:09:14.833Z,61.30
2017-12-27T22:11:43.818Z,61.20
2017-12-27T22:14:12.748Z,61.20
2017-12-27T22:16:41.023Z,61.10
2017-12-27T22:19:10.114Z,61.10
2017-12-27T22:21:38.256Z,61.10
2017-12-27T22:24:07.199Z,61.10
2017-12-27T22:26:35.567Z,61.10
2017-12-27T22:29:03.709Z,61.10
2017-12-27T22:31:32.662Z,61.10
2017-12-27T22:34:00.977Z,61.10
2017-12-27T22:36:29.893Z,61.10
2017-12-27T22:38:58.063Z,61.10
2017-12-27T22:41:26.207Z,61.10
2017-12-27T22:43:54.367Z,61.10
2017-12-27T22:46:22.539Z,61.10
2017-12-27T22:48:50.715Z,61.10
2017-12-27T22:51:18.853Z,61.00
2017-12-27T22:53:47.031Z,61.00
2017-12-27T22:56:15.006Z,61.00
2017-12-27T22:58:43.207Z,61.00
2017-12-27T23:01:12.901Z,61.10
2017-12-27T23:03:41.066Z,61.00
2017-12-27T23:06:09.326Z,61.00
2017-12-27T23:08:37.506Z,61.00
2017-12-27T23:11:05.659Z,61.00
2017-12-27T23:13:33.945Z,61.00
2017-12-27T23:16:02.190Z,61.00
2017-12-27T23:18:31.101Z,61.00
2017-12-27T23:20:59.399Z,61.00
2017-12-27T23:23:27.554Z,61.00
2017-12-27T23:25:55.904Z,61.00
2017-12-27T23:28:24.841Z,61.00
2017-12-27T23:30:53.038Z,61.00
2017-12-27T23:33:21.349Z,61.00
2017-12-27T23:35:50.261Z,61.00
2017-12-27T23:38:18.443Z,61.00
2017-12-27T23:40:46.604Z,61.00
2017-12-27T23:43:15.759Z,61.00
2017-12-27T23:45:44.163Z,61.00
2017-12-27T23:48:12.571Z,61.00
2017-12-27T23:50:40.852Z,60.80
2017-12-27T23:53:09.010Z,61.00
2017-12-27T23:55:37.926Z,61.00
2017-12-27T23:58:06.074Z,60.80
